Terminal Aerodrome Forecast
Issued by NWS Brownsville, TX

Home | Current Version | Previous Version | Text Only | Print | Product List | Glossary On
Versions: 1 2 3 4 5 6 7 8 9 10 11 12 13 14 15 16 17 18 19 20
000
FTUS44 KBRO 181700
TAFHRL
TAF
KHRL 181723Z 1818/1918 19010KT P6SM SCT035
     FM182100 15012KT P6SM SCT050 BKN250
     FM190300 15007KT P6SM FEW025 SCT250
     FM191500 14010KT P6SM VCSH SCT025 BKN030
     FM191700 14010G15KT P6SM SCT040=

USA.gov is the U.S. government's official web portal to all federal, state and local government web resources and services.